Lynchburg, Virginia
Current Conditions -  °F | °C
As of 8:54 AM on Friday 19 Dec 2014 (Local Time) from KLYH Reporting Station
Clear Clear  
Wind Chill: -2°   Ceiling: Unl
Heat Index:   Visibility: 10mi
Dew Point: -4°   Wind: 5mph
Humidity: 72%   Direction: 210°SSW
Pressure: 30.16"   Gusts: NA
Location:  37.4°N, 79.15°W
Report Text: KLYH 191354Z 21004KT 10SM CLR 01/M04 A3016 RMK AO2 SLP218 T00061039
Loading
Personal Weather Stations






























Interactive Weather Map New forecast layout! Learn more

10-Day Weather Forecast

Advertisements
Track Severe Weather on mobile